Pagina principale
METAR-TAF:

METAR-TAF

Aeroporti :

Cerklje ob Krki, Slovenia

latitudine: 45-53-59N, longitudine: 15-30-55E, altezza: 157 m

Osservazione

Il bollettino è stato emesso 10 minuti fa, alle 20:30 UTC
Vento 2 kt da sud-est
Temperature 15°C
Umidità 88%
Pressione 1008 hPa
Visibilità 10 km o più
rovesci di pioggia

METAR: LJCE 252030Z AUTO 14002KT 9999 -SHRA FEW047/// BKN077/// OVC160/// 15/13 Q1008 RESHRA

Ora: 22:40 (20:40 UTC)

Previsione

Il bollettino è stato emesso 40 minuti fa, alle 20:00 UTC
Previsione valida dal 25 alle 21 UTC al 26 alle 06 UTC
Vento 2 kt da direzioni variabili
Visibilità 10 km o più
Poco nuvoloso ad un'altezza di 4000 ft
Nuvoloso ad un'altezza di 10000 ft
Probabilità 40%
dal 26 alle 02 UTC al 26 alle 06 UTC
Visibilità: 0500 m
ad un'altezza di 100 ft
nebbia

TAF: LJCE 252000Z 2521/2606 VRB02KT 9999 FEW040 BKN100 PROB40 2602/2606 0500 FG VV001

Osservazioni e previsioni meteorologiche di più di 4000 aeroporti (messaggi METAR e TAF).

Le stazioni disponibili sono rappresentate dai dischi gialli e rossi sulla carta.

Puntare il mouse per vedere il nome della stazione.

Clicca sopra per visualizzare le osservazioni e previsioni meteorologiche.

Per cambiare la mappa : fare clic sui pulsanti verdi con una croce nera per ingrandire, il pulsante verde con un trattino per diminuire, o sulla freccia verde per le mappe adiacenti.


METAR-TAF: